Time;durP1;ratioP1;P1;durP2;ratioP2;P2;SDS_P1;SDS_P2;PMS_P1;PMS_P2;Temp;Humidity;BMP_temperature;BMP_pressure;BME280_temperature;BME280_humidity;BME280_pressure;Samples;Min_cycle;Max_cycle;Signal;HPM_P1;HPM_P2
2022/06/26 00:01:19;;;;;;;5.30;1.73;;;;;;;;;;5064719;28;20205;-78
2022/06/26 00:03:46;;;;;;;8.17;2.00;;;;;;;;;;5058659;28;20214;-78
2022/06/26 00:06:14;;;;;;;8.87;2.00;;;;;;;;;;5069590;28;20235;-78
2022/06/26 00:08:42;;;;;;;6.23;1.63;;;;;;;;;;5055601;28;20231;-78
2022/06/26 00:11:09;;;;;;;5.87;1.93;;;;;;;;;;5055505;28;20243;-78
2022/06/26 00:13:36;;;;;;;5.87;1.67;;;;;;;;;;5069236;28;20650;-78
2022/06/26 00:16:03;;;;;;;9.87;2.20;;;;;;;;;;5070047;28;20304;-78
2022/06/26 00:18:31;;;;;;;7.40;2.13;;;;;;;;;;5075077;28;20234;-77
2022/06/26 00:20:58;;;;;;;7.40;2.10;;;;;;;;;;5072901;28;20199;-78
2022/06/26 00:23:26;;;;;;;5.43;1.90;;;;;;;;;;5054697;28;20227;-78
2022/06/26 00:25:53;;;;;;;5.27;1.80;;;;;;;;;;5054970;28;20283;-78
2022/06/26 00:28:21;;;;;;;7.10;1.60;;;;;;;;;;5054963;28;20290;-78
2022/06/26 00:30:48;;;;;;;5.67;2.03;;;;;;;;;;5059803;28;20286;-76
2022/06/26 00:33:15;;;;;;;7.17;2.03;;;;;;;;;;5070452;28;20322;-76
2022/06/26 00:35:42;;;;;;;6.93;1.63;;;;;;;;;;5081163;28;20262;-76
2022/06/26 00:38:09;;;;;;;6.30;1.83;;;;;;;;;;5068419;28;20286;-76
2022/06/26 00:40:38;;;;;;;4.93;1.70;;;;;;;;;;5081582;28;20278;-76
2022/06/26 00:43:06;;;;;;;6.90;1.83;;;;;;;;;;5054827;28;20208;-76
2022/06/26 00:45:33;;;;;;;8.73;1.80;;;;;;;;;;5064202;28;20214;-76
2022/06/26 00:48:00;;;;;;;8.60;2.50;;;;;;;;;;5054130;28;20718;-76
2022/06/26 00:50:28;;;;;;;5.87;1.80;;;;;;;;;;5069608;28;20320;-76
2022/06/26 00:52:56;;;;;;;7.00;1.90;;;;;;;;;;5071175;28;20724;-76
2022/06/26 00:55:23;;;;;;;8.17;2.30;;;;;;;;;;5055490;28;20234;-76
2022/06/26 00:57:53;;;;;;;8.07;2.20;;;;;;;;;;5074325;28;20241;-76
2022/06/26 01:00:20;;;;;;;9.20;2.00;;;;;;;;;;5073282;28;20206;-76
2022/06/26 01:02:48;;;;;;;8.80;1.90;;;;;;;;;;5070735;28;20298;-76
2022/06/26 01:05:15;;;;;;;9.33;2.30;;;;;;;;;;5084300;28;20277;-76
2022/06/26 01:07:42;;;;;;;9.03;2.53;;;;;;;;;;5079381;28;20285;-76
2022/06/26 01:10:11;;;;;;;6.10;1.83;;;;;;;;;;5071314;28;20264;-76
2022/06/26 01:12:38;;;;;;;9.87;2.30;;;;;;;;;;5073579;28;20203;-76
2022/06/26 01:15:09;;;;;;;5.60;2.03;;;;;;;;;;5073373;28;20219;-75
2022/06/26 01:17:37;;;;;;;5.70;1.93;;;;;;;;;;5073339;28;20291;-76
2022/06/26 01:20:05;;;;;;;8.80;2.30;;;;;;;;;;5057150;28;20687;-75
2022/06/26 01:22:34;;;;;;;9.47;2.47;;;;;;;;;;5068500;28;20662;-75
2022/06/26 01:25:01;;;;;;;10.83;2.40;;;;;;;;;;5055685;28;20286;-75
2022/06/26 01:27:28;;;;;;;6.43;2.13;;;;;;;;;;5060027;28;20297;-76
2022/06/26 01:29:55;;;;;;;7.80;2.00;;;;;;;;;;5054337;28;20235;-75
2022/06/26 01:32:23;;;;;;;11.13;2.20;;;;;;;;;;5053240;28;20286;-75
2022/06/26 01:34:50;;;;;;;7.87;2.20;;;;;;;;;;5053149;28;20637;-76
2022/06/26 01:37:18;;;;;;;7.90;2.10;;;;;;;;;;5063279;28;20638;-76
2022/06/26 01:39:47;;;;;;;10.73;2.40;;;;;;;;;;5073584;28;20700;-76
2022/06/26 01:42:15;;;;;;;10.40;2.40;;;;;;;;;;5073599;28;20202;-76
2022/06/26 01:44:42;;;;;;;5.97;2.10;;;;;;;;;;5079660;28;20232;-76
2022/06/26 01:47:09;;;;;;;5.93;1.90;;;;;;;;;;5059148;28;20284;-76
2022/06/26 01:49:36;;;;;;;4.83;1.80;;;;;;;;;;5067943;28;20748;-78
2022/06/26 01:52:04;;;;;;;7.80;1.97;;;;;;;;;;5079823;28;20271;-78
2022/06/26 01:54:31;;;;;;;9.70;2.47;;;;;;;;;;5073697;28;20294;-78
2022/06/26 01:56:59;;;;;;;8.17;2.60;;;;;;;;;;5064040;28;20639;-78
2022/06/26 01:59:27;;;;;;;9.70;2.20;;;;;;;;;;5054069;28;20282;-77
2022/06/26 02:01:54;;;;;;;8.17;2.50;;;;;;;;;;5053419;28;20286;-78
2022/06/26 02:04:22;;;;;;;6.93;2.33;;;;;;;;;;5070983;28;20284;-78
2022/06/26 02:06:49;;;;;;;8.73;2.27;;;;;;;;;;5068602;28;20249;-77
2022/06/26 02:14:43;;;;;;;8.43;2.43;;;;;;;;;;5063944;28;20566;-75
2022/06/26 02:17:10;;;;;;;8.73;2.23;;;;;;;;;;5061196;28;20253;-76
2022/06/26 02:19:37;;;;;;;6.10;2.20;;;;;;;;;;5060452;28;20223;-76
2022/06/26 02:22:05;;;;;;;8.87;2.40;;;;;;;;;;5052970;28;20283;-76
2022/06/26 02:24:32;;;;;;;9.87;2.53;;;;;;;;;;5052746;28;20285;-76
2022/06/26 02:26:59;;;;;;;8.93;2.30;;;;;;;;;;5070467;28;20244;-76
2022/06/26 02:29:26;;;;;;;11.77;2.37;;;;;;;;;;5059641;28;20283;-76
2022/06/26 02:31:55;;;;;;;6.50;2.40;;;;;;;;;;5052446;28;20294;-76
2022/06/26 02:34:22;;;;;;;6.77;2.40;;;;;;;;;;5067192;28;20624;-76
2022/06/26 02:36:49;;;;;;;6.37;2.23;;;;;;;;;;5060543;28;20661;-76
2022/06/26 02:39:17;;;;;;;5.53;2.10;;;;;;;;;;5052843;28;20246;-76
2022/06/26 02:41:44;;;;;;;7.40;2.10;;;;;;;;;;5079549;28;20256;-76
2022/06/26 02:44:11;;;;;;;10.33;2.43;;;;;;;;;;5072977;28;20227;-75
2022/06/26 02:46:38;;;;;;;7.10;2.20;;;;;;;;;;5070844;28;20280;-75
2022/06/26 02:49:07;;;;;;;5.57;2.20;;;;;;;;;;5072325;28;20662;-76
2022/06/26 02:51:34;;;;;;;9.87;2.60;;;;;;;;;;5061091;28;20326;-76
2022/06/26 02:54:01;;;;;;;7.30;2.27;;;;;;;;;;5063399;28;20289;-75
2022/06/26 02:56:28;;;;;;;8.30;2.10;;;;;;;;;;5055971;28;20321;-76
2022/06/26 02:58:55;;;;;;;9.90;3.17;;;;;;;;;;5071539;28;20289;-76
2022/06/26 03:01:23;;;;;;;6.80;1.93;;;;;;;;;;5072005;28;20246;-75
2022/06/26 03:03:50;;;;;;;7.77;2.47;;;;;;;;;;5071204;28;20237;-76
2022/06/26 03:06:18;;;;;;;7.90;2.47;;;;;;;;;;5072158;28;20234;-76
2022/06/26 03:08:45;;;;;;;9.90;2.37;;;;;;;;;;5053274;28;20283;-75
2022/06/26 03:11:13;;;;;;;8.23;2.30;;;;;;;;;;5051395;28;20242;-76
2022/06/26 03:13:40;;;;;;;7.93;3.07;;;;;;;;;;5062587;28;20278;-75
2022/06/26 03:16:07;;;;;;;9.93;2.77;;;;;;;;;;5064467;28;20991;-75
2022/06/26 03:18:34;;;;;;;8.03;2.40;;;;;;;;;;5071860;28;20247;-75
2022/06/26 03:21:01;;;;;;;7.73;2.30;;;;;;;;;;5065369;28;20285;-75
2022/06/26 03:26:11;;;;;;;9.23;2.30;;;;;;;;;;5071762;28;20277;-75
2022/06/26 03:28:38;;;;;;;9.30;2.23;;;;;;;;;;5077065;28;20264;-77
2022/06/26 03:31:05;;;;;;;6.63;2.20;;;;;;;;;;5051842;28;20290;-75
2022/06/26 03:33:33;;;;;;;9.13;2.20;;;;;;;;;;5082053;28;20290;-74
2022/06/26 03:36:00;;;;;;;5.83;2.10;;;;;;;;;;5064798;28;20597;-74
2022/06/26 03:38:27;;;;;;;9.60;2.63;;;;;;;;;;5054281;28;20242;-78
2022/06/26 03:40:56;;;;;;;8.37;2.10;;;;;;;;;;5069186;28;20237;-77
2022/06/26 03:43:23;;;;;;;6.07;2.20;;;;;;;;;;5074537;28;20233;-74
2022/06/26 03:45:50;;;;;;;8.90;3.07;;;;;;;;;;5056443;28;20242;-76
2022/06/26 03:48:17;;;;;;;6.30;2.43;;;;;;;;;;5055313;28;20291;-78
2022/06/26 03:50:44;;;;;;;8.17;3.60;;;;;;;;;;5055447;28;20686;-77
2022/06/26 03:53:12;;;;;;;8.97;3.43;;;;;;;;;;5064632;28;20293;-77
2022/06/26 03:55:39;;;;;;;11.30;3.33;;;;;;;;;;5075084;28;20257;-77
2022/06/26 03:58:08;;;;;;;8.57;3.30;;;;;;;;;;5076960;28;20289;-77
2022/06/26 04:00:35;;;;;;;8.00;2.93;;;;;;;;;;5077097;28;20639;-77
2022/06/26 04:03:03;;;;;;;10.10;2.83;;;;;;;;;;5081747;28;20202;-77
2022/06/26 04:05:31;;;;;;;5.27;2.60;;;;;;;;;;5075171;28;20568;-77
2022/06/26 04:07:58;;;;;;;6.57;2.67;;;;;;;;;;5075504;28;20662;-77
2022/06/26 04:10:25;;;;;;;7.50;2.63;;;;;;;;;;5074974;28;20289;-77
2022/06/26 04:12:53;;;;;;;11.30;3.27;;;;;;;;;;5090948;28;20286;-77
2022/06/26 04:15:22;;;;;;;5.47;2.70;;;;;;;;;;5095852;28;20281;-77
2022/06/26 04:17:49;;;;;;;9.17;2.50;;;;;;;;;;5078153;28;20223;-77
2022/06/26 04:20:16;;;;;;;7.40;2.57;;;;;;;;;;5074973;28;20696;-75
2022/06/26 04:22:43;;;;;;;8.03;2.67;;;;;;;;;;5070410;28;20254;-77
2022/06/26 04:25:11;;;;;;;8.40;2.77;;;;;;;;;;5074066;28;20664;-77
2022/06/26 04:27:38;;;;;;;9.40;2.53;;;;;;;;;;5070969;28;20220;-77
2022/06/26 04:30:06;;;;;;;7.47;2.60;;;;;;;;;;5079238;28;20220;-77
2022/06/26 04:32:34;;;;;;;8.90;3.00;;;;;;;;;;5057980;28;20199;-77
2022/06/26 04:35:01;;;;;;;6.97;2.73;;;;;;;;;;5073478;28;20202;-77
2022/06/26 04:37:29;;;;;;;7.40;2.50;;;;;;;;;;5066231;28;20266;-77
2022/06/26 04:39:56;;;;;;;10.57;2.83;;;;;;;;;;5059493;28;20202;-77
2022/06/26 04:42:23;;;;;;;11.27;2.80;;;;;;;;;;5065058;28;20658;-77
2022/06/26 04:44:50;;;;;;;8.37;2.60;;;;;;;;;;5080137;28;20263;-77
2022/06/26 04:47:18;;;;;;;7.00;2.60;;;;;;;;;;5071352;28;20200;-77
2022/06/26 04:49:47;;;;;;;5.60;2.70;;;;;;;;;;5058040;28;20287;-76
2022/06/26 04:52:15;;;;;;;10.87;2.80;;;;;;;;;;5076813;28;20203;-77
2022/06/26 04:54:42;;;;;;;7.97;2.80;;;;;;;;;;5094528;28;20256;-77
2022/06/26 04:57:10;;;;;;;11.43;3.03;;;;;;;;;;5076617;28;20307;-77
2022/06/26 04:59:37;;;;;;;11.50;3.20;;;;;;;;;;5074122;28;20199;-77
2022/06/26 05:02:05;;;;;;;10.57;3.37;;;;;;;;;;5057286;28;20292;-77
2022/06/26 05:04:32;;;;;;;6.30;2.73;;;;;;;;;;5065493;28;20285;-77
2022/06/26 05:07:01;;;;;;;8.13;3.03;;;;;;;;;;5071924;28;20240;-77
2022/06/26 05:09:28;;;;;;;6.53;2.77;;;;;;;;;;5064449;28;20257;-77
2022/06/26 05:11:55;;;;;;;8.17;2.77;;;;;;;;;;5054114;28;20226;-76
2022/06/26 05:14:22;;;;;;;8.77;2.80;;;;;;;;;;5053851;28;20290;-77
2022/06/26 05:16:49;;;;;;;9.10;3.03;;;;;;;;;;5070824;28;20313;-76
2022/06/26 05:19:17;;;;;;;6.73;2.77;;;;;;;;;;5070228;28;20202;-76
2022/06/26 05:21:44;;;;;;;6.20;2.63;;;;;;;;;;5054331;28;20234;-76
2022/06/26 05:24:13;;;;;;;8.73;2.60;;;;;;;;;;5067686;28;20256;-77
2022/06/26 05:26:40;;;;;;;6.53;2.60;;;;;;;;;;5082316;28;20229;-76
2022/06/26 05:29:07;;;;;;;7.20;2.50;;;;;;;;;;5064936;28;20238;-76
2022/06/26 05:31:34;;;;;;;10.53;3.03;;;;;;;;;;5063028;28;20231;-76
2022/06/26 05:34:01;;;;;;;10.90;2.40;;;;;;;;;;5074662;28;20287;-76
2022/06/26 05:36:29;;;;;;;8.57;2.20;;;;;;;;;;5071134;28;20314;-76
2022/06/26 05:38:56;;;;;;;5.93;2.10;;;;;;;;;;5073149;28;20286;-76
2022/06/26 05:41:24;;;;;;;8.10;2.30;;;;;;;;;;5064203;28;20279;-76
2022/06/26 05:43:51;;;;;;;7.73;2.00;;;;;;;;;;5072766;28;20286;-76
2022/06/26 05:46:19;;;;;;;6.50;1.70;;;;;;;;;;5073787;28;20629;-77
2022/06/26 05:48:46;;;;;;;6.83;2.07;;;;;;;;;;5076335;28;20233;-76
2022/06/26 05:51:13;;;;;;;7.63;1.90;;;;;;;;;;5066816;28;20787;-77
2022/06/26 05:53:40;;;;;;;7.20;1.63;;;;;;;;;;5079938;28;20228;-77
2022/06/26 05:56:07;;;;;;;8.40;1.70;;;;;;;;;;5081329;28;20295;-76
2022/06/26 05:58:36;;;;;;;5.33;1.97;;;;;;;;;;5072988;28;20285;-76
2022/06/26 06:01:03;;;;;;;7.13;2.10;;;;;;;;;;5069867;28;20251;-76
2022/06/26 06:03:30;;;;;;;7.87;2.00;;;;;;;;;;5052882;28;20295;-76
2022/06/26 06:05:58;;;;;;;8.87;2.40;;;;;;;;;;5052849;28;20247;-77
2022/06/26 06:08:25;;;;;;;5.47;1.77;;;;;;;;;;5063745;28;20233;-77
2022/06/26 06:10:52;;;;;;;4.65;1.77;;;;;;;;;;5055156;28;20282;-77
2022/06/26 06:13:19;;;;;;;5.70;2.00;;;;;;;;;;5053102;28;20643;-77
2022/06/26 06:15:48;;;;;;;10.45;2.13;;;;;;;;;;5054314;28;20642;-77
2022/06/26 06:18:15;;;;;;;6.55;2.42;;;;;;;;;;5052831;28;20259;-77
2022/06/26 06:20:45;;;;;;;5.30;1.75;;;;;;;;;;5069118;28;20366;-77
2022/06/26 06:23:12;;;;;;;6.45;1.60;;;;;;;;;;5068881;28;20249;-77
2022/06/26 06:25:39;;;;;;;4.57;1.58;;;;;;;;;;5061437;28;20237;-75
2022/06/26 06:28:07;;;;;;;6.82;1.90;;;;;;;;;;5063067;28;20234;-75
2022/06/26 06:30:34;;;;;;;5.13;1.40;;;;;;;;;;5068380;28;20283;-77
2022/06/26 06:33:02;;;;;;;3.15;1.30;;;;;;;;;;5066198;28;20744;-77
2022/06/26 06:35:30;;;;;;;4.70;1.52;;;;;;;;;;5063577;28;20290;-77
2022/06/26 06:37:57;;;;;;;3.90;1.50;;;;;;;;;;5065976;28;20237;-77
2022/06/26 06:40:24;;;;;;;4.68;1.67;;;;;;;;;;5053872;28;20231;-77
2022/06/26 06:42:51;;;;;;;5.15;1.48;;;;;;;;;;5052456;28;20206;-77
2022/06/26 06:45:19;;;;;;;7.10;1.85;;;;;;;;;;5052028;28;20663;-77
2022/06/26 06:47:46;;;;;;;5.05;1.42;;;;;;;;;;5052286;28;20739;-80
2022/06/26 06:50:14;;;;;;;4.55;1.42;;;;;;;;;;5051891;28;20263;-80
2022/06/26 06:52:41;;;;;;;4.82;1.60;;;;;;;;;;5052122;28;20659;-79
2022/06/26 06:55:09;;;;;;;4.45;1.45;;;;;;;;;;5061113;28;20234;-78
2022/06/26 06:57:36;;;;;;;4.65;1.45;;;;;;;;;;5080957;28;20645;-80
2022/06/26 07:00:05;;;;;;;4.47;1.40;;;;;;;;;;5072322;28;20199;-79
2022/06/26 07:02:32;;;;;;;6.25;1.70;;;;;;;;;;5053982;28;20282;-78
2022/06/26 07:05:00;;;;;;;3.22;1.40;;;;;;;;;;5071492;28;20199;-80
2022/06/26 07:07:28;;;;;;;4.10;1.30;;;;;;;;;;5053962;28;20192;-79
2022/06/26 07:09:56;;;;;;;5.60;1.58;;;;;;;;;;5052080;28;20238;-80
2022/06/26 07:12:23;;;;;;;4.88;1.35;;;;;;;;;;5053772;28;20249;-79
2022/06/26 07:14:50;;;;;;;4.18;1.48;;;;;;;;;;5072162;28;20234;-79
2022/06/26 07:17:17;;;;;;;4.28;1.40;;;;;;;;;;5059621;28;20278;-80
2022/06/26 07:19:44;;;;;;;5.53;1.40;;;;;;;;;;5051838;28;20227;-79
2022/06/26 07:22:12;;;;;;;5.25;1.27;;;;;;;;;;5052025;28;20195;-79
2022/06/26 07:24:40;;;;;;;4.40;1.30;;;;;;;;;;5077426;28;20226;-79
2022/06/26 07:27:08;;;;;;;7.68;1.35;;;;;;;;;;5092113;28;20256;-79
2022/06/26 07:29:35;;;;;;;5.07;1.45;;;;;;;;;;5090885;28;20206;-80
2022/06/26 07:32:02;;;;;;;5.65;1.25;;;;;;;;;;5092946;28;20288;-79
2022/06/26 07:34:30;;;;;;;4.20;1.20;;;;;;;;;;5079697;28;20256;-80
2022/06/26 07:36:58;;;;;;;3.97;1.40;;;;;;;;;;5068925;28;20236;-79
2022/06/26 07:39:26;;;;;;;4.78;1.20;;;;;;;;;;5052641;28;20222;-78
2022/06/26 07:41:54;;;;;;;6.10;1.80;;;;;;;;;;5061652;28;20218;-79
2022/06/26 07:44:21;;;;;;;5.00;1.50;;;;;;;;;;5063295;28;20249;-79
2022/06/26 07:46:48;;;;;;;5.18;1.23;;;;;;;;;;5054761;28;20246;-79
2022/06/26 07:49:16;;;;;;;6.90;1.30;;;;;;;;;;5061872;28;20223;-79
2022/06/26 07:51:43;;;;;;;4.65;1.42;;;;;;;;;;5058533;28;20314;-79
2022/06/26 07:54:10;;;;;;;5.32;1.40;;;;;;;;;;5074850;28;21605;-79
2022/06/26 07:56:38;;;;;;;3.88;1.17;;;;;;;;;;5063081;28;20204;-80
2022/06/26 07:59:06;;;;;;;5.30;1.30;;;;;;;;;;5056473;28;20740;-78
2022/06/26 08:01:33;;;;;;;3.47;1.00;;;;;;;;;;5059384;28;20306;-80
2022/06/26 08:04:01;;;;;;;4.68;1.42;;;;;;;;;;5052254;28;20212;-79
2022/06/26 08:06:29;;;;;;;3.95;1.30;;;;;;;;;;5062528;28;20204;-79
2022/06/26 08:08:57;;;;;;;4.97;1.20;;;;;;;;;;5064925;28;20191;-79
2022/06/26 08:11:25;;;;;;;3.83;1.30;;;;;;;;;;5057092;28;20290;-79
2022/06/26 08:13:52;;;;;;;3.15;1.10;;;;;;;;;;5065945;28;20219;-79
2022/06/26 08:16:21;;;;;;;4.43;1.20;;;;;;;;;;5057494;28;20647;-79
2022/06/26 08:18:48;;;;;;;3.63;1.10;;;;;;;;;;5066691;28;20246;-79
2022/06/26 08:24:00;;;;;;;3.97;1.17;;;;;;;;;;5061661;28;20203;-79
2022/06/26 08:26:27;;;;;;;4.18;1.10;;;;;;;;;;5057175;28;20695;-79
2022/06/26 08:28:54;;;;;;;4.05;1.40;;;;;;;;;;5071223;28;20281;-79
2022/06/26 08:31:23;;;;;;;4.30;1.20;;;;;;;;;;5073987;28;20666;-79
2022/06/26 08:33:50;;;;;;;3.63;1.10;;;;;;;;;;5068683;28;20234;-79
2022/06/26 08:36:17;;;;;;;6.32;1.48;;;;;;;;;;5073788;28;20238;-79
2022/06/26 08:38:45;;;;;;;4.75;1.30;;;;;;;;;;5071809;28;20320;-79
2022/06/26 08:41:13;;;;;;;2.70;1.02;;;;;;;;;;5076057;28;20286;-79
2022/06/26 08:43:41;;;;;;;3.80;1.05;;;;;;;;;;5062282;28;20582;-78
2022/06/26 08:46:09;;;;;;;3.88;1.30;;;;;;;;;;5064788;28;20199;-78
2022/06/26 08:48:42;;;;;;;5.43;1.25;;;;;;;;;;5071215;28;20281;-79
2022/06/26 08:51:10;;;;;;;4.97;1.40;;;;;;;;;;5070517;28;20273;-78
2022/06/26 08:53:37;;;;;;;2.80;1.20;;;;;;;;;;5063429;28;20552;-79
2022/06/26 08:56:05;;;;;;;3.28;1.13;;;;;;;;;;5065475;28;20289;-79
2022/06/26 08:58:32;;;;;;;2.65;0.98;;;;;;;;;;5056603;28;20265;-78
2022/06/26 09:01:00;;;;;;;4.22;0.90;;;;;;;;;;5069935;28;20286;-79
2022/06/26 09:03:27;;;;;;;3.30;0.90;;;;;;;;;;5072067;28;20199;-78
2022/06/26 09:05:56;;;;;;;4.88;1.15;;;;;;;;;;5066194;28;20223;-77
2022/06/26 09:08:25;;;;;;;5.45;1.00;;;;;;;;;;5066811;28;20663;-78
2022/06/26 09:10:52;;;;;;;3.72;0.90;;;;;;;;;;5076454;28;20527;-78
2022/06/26 09:13:20;;;;;;;6.97;1.02;;;;;;;;;;5078320;28;20234;-79
2022/06/26 09:15:50;;;;;;;3.72;0.82;;;;;;;;;;5068469;28;20651;-77
2022/06/26 09:18:18;;;;;;;4.72;1.00;;;;;;;;;;5076207;28;20686;-76
2022/06/26 09:20:52;;;;;;;4.57;1.10;;;;;;;;;;5067412;28;20210;-78
2022/06/26 09:23:24;;;;;;;2.53;0.95;;;;;;;;;;5058920;28;20609;-77
2022/06/26 09:25:51;;;;;;;1.88;0.90;;;;;;;;;;5065841;28;20258;-77
2022/06/26 09:28:19;;;;;;;4.20;0.88;;;;;;;;;;5066159;28;20282;-77
2022/06/26 09:30:50;;;;;;;3.45;0.90;;;;;;;;;;5070353;28;20930;-78
2022/06/26 09:33:17;;;;;;;4.10;1.23;;;;;;;;;;5069608;28;20206;-78
2022/06/26 09:35:44;;;;;;;2.90;1.35;;;;;;;;;;5070805;28;20309;-77
2022/06/26 09:38:12;;;;;;;4.15;1.13;;;;;;;;;;5070697;28;20355;-78
2022/06/26 09:40:50;;;;;;;2.95;1.00;;;;;;;;;;5066348;28;20666;-79
2022/06/26 09:43:18;;;;;;;2.72;1.10;;;;;;;;;;5070886;28;20203;-78
2022/06/26 09:45:46;;;;;;;4.88;1.30;;;;;;;;;;5067629;28;20367;-80
2022/06/26 09:48:13;;;;;;;4.53;1.17;;;;;;;;;;5066544;28;20244;-79
2022/06/26 09:50:40;;;;;;;4.00;1.00;;;;;;;;;;5063599;28;20665;-78
2022/06/26 09:53:08;;;;;;;5.10;1.08;;;;;;;;;;5072785;28;20223;-79
2022/06/26 09:55:35;;;;;;;3.00;0.90;;;;;;;;;;5061904;28;20694;-79
2022/06/26 09:58:05;;;;;;;4.70;0.93;;;;;;;;;;5054707;28;20251;-79
2022/06/26 10:00:35;;;;;;;4.97;1.13;;;;;;;;;;5068548;28;20283;-79
2022/06/26 10:08:33;;;;;;;3.90;1.50;;;;;;;;;;5076166;28;20214;-79
2022/06/26 10:11:02;;;;;;;4.70;0.93;;;;;;;;;;5069639;28;20287;-78
2022/06/26 10:13:34;;;;;;;5.00;1.70;;;;;;;;;;5068499;28;20700;-79
2022/06/26 10:16:09;;;;;;;3.88;1.15;;;;;;;;;;5062634;28;20714;-78
2022/06/26 10:18:42;;;;;;;4.80;1.00;;;;;;;;;;5061487;28;20316;-78
2022/06/26 10:21:09;;;;;;;2.28;0.80;;;;;;;;;;5068879;28;20286;-76
2022/06/26 10:23:37;;;;;;;4.72;1.20;;;;;;;;;;5059315;28;20239;-76
2022/06/26 10:26:15;;;;;;;7.00;3.70;;;;;;;;;;5061589;28;20669;-77
2022/06/26 10:28:59;;;;;;;7.43;3.20;;;;;;;;;;5071915;28;20252;-76
2022/06/26 10:31:26;;;;;;;5.45;1.40;;;;;;;;;;5059449;28;20481;-75
2022/06/26 10:33:54;;;;;;;4.55;1.13;;;;;;;;;;5061374;28;20282;-76
2022/06/26 10:36:21;;;;;;;4.72;1.25;;;;;;;;;;5050811;28;20234;-76
2022/06/26 10:38:49;;;;;;;4.95;1.30;;;;;;;;;;5050459;28;20224;-78
2022/06/26 10:44:15;;;;;;;3.40;1.00;;;;;;;;;;5006426;28;20236;-75
2022/06/26 10:46:46;;;;;;;4.72;1.10;;;;;;;;;;5005588;28;20204;-75
2022/06/26 10:49:13;;;;;;;2.78;0.82;;;;;;;;;;5007786;28;20340;-74
2022/06/26 10:51:42;;;;;;;4.82;1.50;;;;;;;;;;5009188;28;20272;-75
2022/06/26 10:54:19;;;;;;;4.28;1.33;;;;;;;;;;5009238;28;20320;-75
2022/06/26 10:56:47;;;;;;;3.13;1.05;;;;;;;;;;5008258;28;20205;-75
2022/06/26 10:59:18;;;;;;;3.53;1.60;;;;;;;;;;5007803;28;20628;-74
2022/06/26 11:01:45;;;;;;;4.68;1.83;;;;;;;;;;5009156;28;20313;-75
2022/06/26 11:04:12;;;;;;;6.07;1.13;;;;;;;;;;5009802;28;20375;-75
2022/06/26 11:06:40;;;;;;;3.63;1.00;;;;;;;;;;5009797;28;20232;-74
2022/06/26 11:09:08;;;;;;;2.53;0.98;;;;;;;;;;5009924;28;20673;-75
2022/06/26 11:11:36;;;;;;;2.70;1.10;;;;;;;;;;5009427;28;20348;-74
2022/06/26 11:14:06;;;;;;;4.70;0.95;;;;;;;;;;5009902;28;20301;-75
2022/06/26 11:16:35;;;;;;;5.18;1.25;;;;;;;;;;5008956;28;20295;-74
2022/06/26 11:19:04;;;;;;;4.53;1.05;;;;;;;;;;5008932;28;20248;-75
2022/06/26 11:21:31;;;;;;;2.75;0.90;;;;;;;;;;5059203;28;20199;-74
2022/06/26 11:23:59;;;;;;;2.03;0.80;;;;;;;;;;5091257;28;20268;-75
2022/06/26 11:26:26;;;;;;;3.67;1.10;;;;;;;;;;5089104;28;20237;-76
2022/06/26 11:28:57;;;;;;;2.60;1.00;;;;;;;;;;5058745;28;20282;-75
2022/06/26 11:31:24;;;;;;;4.03;1.05;;;;;;;;;;5076863;28;20202;-75
2022/06/26 11:33:53;;;;;;;5.30;1.20;;;;;;;;;;5088737;28;20233;-74
2022/06/26 11:39:55;;;;;;;2.85;0.98;;;;;;;;;;5091203;28;20291;-74
2022/06/26 11:48:17;;;;;;;2.50;1.00;;;;;;;;;;5072179;28;20704;-75
2022/06/26 11:50:47;;;;;;;3.45;1.15;;;;;;;;;;5068928;28;20653;-75
2022/06/26 11:53:19;;;;;;;1.77;0.90;;;;;;;;;;5072241;28;20712;-75
2022/06/26 11:55:47;;;;;;;3.60;1.33;;;;;;;;;;5058518;28;20228;-75
2022/06/26 11:58:14;;;;;;;2.05;1.08;;;;;;;;;;5051915;28;20279;-74
2022/06/26 12:00:41;;;;;;;3.95;1.35;;;;;;;;;;5055447;28;20613;-73
2022/06/26 12:03:08;;;;;;;3.38;1.33;;;;;;;;;;5055297;28;20286;-75
2022/06/26 12:05:36;;;;;;;3.45;0.98;;;;;;;;;;5061559;28;20230;-74
2022/06/26 12:08:14;;;;;;;3.90;1.05;;;;;;;;;;5095386;28;20238;-74
2022/06/26 12:10:41;;;;;;;2.47;1.00;;;;;;;;;;5094995;28;20247;-74
2022/06/26 12:13:09;;;;;;;2.08;0.90;;;;;;;;;;5079025;28;20286;-74
2022/06/26 12:15:38;;;;;;;1.52;0.90;;;;;;;;;;5059865;28;20227;-73
2022/06/26 12:18:06;;;;;;;1.48;0.80;;;;;;;;;;5069419;28;20298;-73
2022/06/26 12:20:36;;;;;;;1.80;0.60;;;;;;;;;;5074289;28;20251;-75
2022/06/26 12:23:03;;;;;;;4.13;1.10;;;;;;;;;;5054189;28;20287;-74
2022/06/26 12:25:32;;;;;;;1.83;0.90;;;;;;;;;;5054786;28;20203;-74
2022/06/26 12:28:00;;;;;;;3.83;1.15;;;;;;;;;;5057575;28;20726;-74
2022/06/26 12:30:28;;;;;;;2.40;0.80;;;;;;;;;;5074787;28;20285;-75
2022/06/26 12:32:56;;;;;;;4.18;1.00;;;;;;;;;;5074365;28;20239;-75
2022/06/26 12:35:24;;;;;;;2.13;0.63;;;;;;;;;;5074374;28;20238;-74
2022/06/26 12:37:51;;;;;;;1.85;0.63;;;;;;;;;;5087414;28;20289;-74
2022/06/26 12:40:18;;;;;;;1.85;0.68;;;;;;;;;;5074355;28;20254;-75
2022/06/26 12:42:47;;;;;;;2.05;0.60;;;;;;;;;;5074710;28;20286;-75
2022/06/26 12:45:14;;;;;;;2.40;0.82;;;;;;;;;;5074285;28;20632;-75
2022/06/26 12:47:41;;;;;;;2.53;0.70;;;;;;;;;;5069263;28;20282;-75
2022/06/26 12:50:10;;;;;;;1.65;0.70;;;;;;;;;;5061971;28;20363;-74
2022/06/26 12:52:37;;;;;;;1.33;0.77;;;;;;;;;;5073893;28;20286;-76
2022/06/26 12:55:06;;;;;;;2.33;0.70;;;;;;;;;;5074448;28;20226;-76
2022/06/26 12:57:33;;;;;;;2.30;0.68;;;;;;;;;;5064886;28;20231;-75
2022/06/26 13:00:01;;;;;;;2.05;0.60;;;;;;;;;;5053936;28;20263;-76
2022/06/26 13:02:28;;;;;;;2.30;0.73;;;;;;;;;;5054346;28;20287;-75
2022/06/26 13:04:56;;;;;;;1.30;0.60;;;;;;;;;;5092395;28;20294;-76
2022/06/26 13:07:23;;;;;;;1.92;0.75;;;;;;;;;;5060856;28;20291;-76
2022/06/26 13:09:50;;;;;;;2.40;0.80;;;;;;;;;;5075668;28;20719;-76
2022/06/26 13:12:17;;;;;;;1.23;0.40;;;;;;;;;;5070593;28;20616;-76
2022/06/26 13:14:44;;;;;;;2.75;0.88;;;;;;;;;;5073429;28;20314;-76
2022/06/26 13:17:13;;;;;;;1.95;0.70;;;;;;;;;;5073220;28;20265;-76
2022/06/26 13:19:40;;;;;;;2.95;0.80;;;;;;;;;;5080654;28;20219;-76
2022/06/26 13:22:08;;;;;;;2.50;0.80;;;;;;;;;;5077155;28;20238;-76
2022/06/26 13:24:35;;;;;;;1.38;0.70;;;;;;;;;;5071607;28;20227;-76
2022/06/26 13:27:02;;;;;;;2.80;0.80;;;;;;;;;;5073710;28;20295;-76
2022/06/26 13:29:29;;;;;;;1.83;0.90;;;;;;;;;;5055830;28;20203;-76
2022/06/26 13:31:57;;;;;;;4.07;1.10;;;;;;;;;;5067835;28;20283;-76
2022/06/26 13:34:26;;;;;;;2.05;0.70;;;;;;;;;;5053509;28;20288;-76
2022/06/26 13:36:53;;;;;;;1.70;0.65;;;;;;;;;;5053731;28;20239;-76
2022/06/26 13:39:20;;;;;;;3.00;0.88;;;;;;;;;;5070151;28;20749;-78
2022/06/26 13:41:47;;;;;;;2.95;0.88;;;;;;;;;;5062142;28;20231;-77
2022/06/26 13:44:15;;;;;;;5.70;1.10;;;;;;;;;;5057170;28;20237;-78
2022/06/26 13:46:42;;;;;;;3.13;0.82;;;;;;;;;;5073403;28;20669;-77
2022/06/26 13:49:09;;;;;;;2.00;0.70;;;;;;;;;;5071114;28;20195;-77
2022/06/26 13:51:39;;;;;;;2.88;0.75;;;;;;;;;;5071613;28;20692;-77
2022/06/26 13:54:07;;;;;;;3.47;0.80;;;;;;;;;;5079708;28;20260;-77
2022/06/26 13:56:34;;;;;;;1.90;0.85;;;;;;;;;;5058959;28;20269;-77
2022/06/26 13:59:02;;;;;;;3.08;0.82;;;;;;;;;;5053516;28;20229;-77
2022/06/26 14:01:30;;;;;;;2.80;0.70;;;;;;;;;;5053162;28;20200;-77
2022/06/26 14:03:57;;;;;;;3.00;0.90;;;;;;;;;;5052616;28;20207;-77
2022/06/26 14:06:24;;;;;;;1.92;0.80;;;;;;;;;;5035277;28;20287;-77
2022/06/26 14:08:53;;;;;;;4.63;0.85;;;;;;;;;;5052714;28;20234;-77
2022/06/26 14:11:21;;;;;;;1.98;0.68;;;;;;;;;;5052652;28;20287;-76
2022/06/26 14:13:48;;;;;;;3.13;1.10;;;;;;;;;;5063997;28;20702;-77
2022/06/26 14:16:15;;;;;;;3.30;1.00;;;;;;;;;;5071842;28;20294;-77
2022/06/26 14:18:43;;;;;;;2.67;0.90;;;;;;;;;;5066732;28;20288;-76
2022/06/26 14:21:10;;;;;;;2.45;0.70;;;;;;;;;;5066369;28;20282;-76
2022/06/26 14:26:23;;;;;;;3.65;0.90;;;;;;;;;;5064201;28;20318;-76
2022/06/26 14:28:51;;;;;;;2.53;0.95;;;;;;;;;;5084845;28;20294;-77
2022/06/26 14:31:18;;;;;;;4.53;0.90;;;;;;;;;;5063026;28;20278;-76
2022/06/26 14:33:46;;;;;;;2.17;0.85;;;;;;;;;;5053690;28;20223;-76
2022/06/26 14:36:14;;;;;;;2.17;0.80;;;;;;;;;;5056265;28;20210;-76
2022/06/26 14:38:41;;;;;;;4.32;1.00;;;;;;;;;;5071949;28;20253;-76
2022/06/26 14:41:08;;;;;;;2.25;0.65;;;;;;;;;;5072108;28;20202;-76
2022/06/26 14:43:37;;;;;;;2.92;0.75;;;;;;;;;;5071950;28;20286;-76
2022/06/26 14:46:04;;;;;;;5.60;1.00;;;;;;;;;;5070484;28;20294;-76
2022/06/26 14:48:31;;;;;;;1.95;0.50;;;;;;;;;;5059522;28;20678;-77
2022/06/26 14:50:58;;;;;;;3.20;0.70;;;;;;;;;;5072028;28;20280;-76
2022/06/26 14:53:26;;;;;;;2.55;1.10;;;;;;;;;;5071824;28;20290;-76
2022/06/26 14:55:53;;;;;;;4.50;0.88;;;;;;;;;;5072152;28;20742;-76
2022/06/26 14:58:21;;;;;;;2.72;0.80;;;;;;;;;;5072109;28;20237;-76
2022/06/26 15:00:50;;;;;;;2.65;0.90;;;;;;;;;;5071494;28;20586;-77
2022/06/26 15:03:17;;;;;;;3.20;0.90;;;;;;;;;;5052077;28;20231;-76
2022/06/26 15:05:44;;;;;;;3.60;0.80;;;;;;;;;;5060364;28;20734;-76
2022/06/26 15:08:11;;;;;;;4.20;1.13;;;;;;;;;;5056251;28;20655;-76
2022/06/26 15:10:38;;;;;;;3.80;0.85;;;;;;;;;;5052133;28;20234;-76
2022/06/26 15:13:06;;;;;;;2.50;1.00;;;;;;;;;;5067712;28;20415;-76
2022/06/26 15:15:33;;;;;;;4.47;0.93;;;;;;;;;;5087220;28;20286;-76
2022/06/26 15:18:02;;;;;;;3.38;0.80;;;;;;;;;;5071270;28;20203;-76